sensor_id;sensor_type;location;lat;lon;timestamp;pressure;altitude;pressure_sealevel;temperature;humidity
37860;BME280;23698;52.014;5.190;2023-04-06T00:02:29;101756.81;;;4.97;100.00
37860;BME280;23698;52.014;5.190;2023-04-06T00:05:16;101750.28;;;4.89;100.00
37860;BME280;23698;52.014;5.190;2023-04-06T00:08:04;101751.50;;;4.85;100.00
37860;BME280;23698;52.014;5.190;2023-04-06T00:10:50;101747.00;;;4.86;100.00
37860;BME280;23698;52.014;5.190;2023-04-06T00:13:36;101743.75;;;5.13;100.00
37860;BME280;23698;52.014;5.190;2023-04-06T00:16:23;101738.78;;;5.08;100.00
37860;BME280;23698;52.014;5.190;2023-04-06T00:19:12;101739.66;;;4.88;100.00
37860;BME280;23698;52.014;5.190;2023-04-06T00:21:58;101740.00;;;4.73;100.00
37860;BME280;23698;52.014;5.190;2023-04-06T00:24:46;101735.84;;;4.69;100.00
37860;BME280;23698;52.014;5.190;2023-04-06T00:27:32;101731.06;;;4.73;100.00
37860;BME280;23698;52.014;5.190;2023-04-06T00:30:18;101737.31;;;4.73;100.00
37860;BME280;23698;52.014;5.190;2023-04-06T00:33:05;101725.00;;;4.71;100.00
37860;BME280;23698;52.014;5.190;2023-04-06T00:35:52;101721.13;;;4.64;100.00
37860;BME280;23698;52.014;5.190;2023-04-06T00:38:39;101727.22;;;4.66;100.00
37860;BME280;23698;52.014;5.190;2023-04-06T00:41:26;101724.91;;;4.61;100.00
37860;BME280;23698;52.014;5.190;2023-04-06T00:44:13;101719.69;;;4.60;100.00
37860;BME280;23698;52.014;5.190;2023-04-06T00:47:00;101713.66;;;4.67;100.00
37860;BME280;23698;52.014;5.190;2023-04-06T00:49:46;101709.78;;;4.60;100.00
37860;BME280;23698;52.014;5.190;2023-04-06T00:52:33;101710.75;;;4.80;100.00
37860;BME280;23698;52.014;5.190;2023-04-06T00:55:20;101709.31;;;4.76;100.00
37860;BME280;23698;52.014;5.190;2023-04-06T00:58:08;101705.84;;;4.85;100.00
37860;BME280;23698;52.014;5.190;2023-04-06T01:01:04;101704.00;;;5.17;100.00
37860;BME280;23698;52.014;5.190;2023-04-06T01:03:52;101696.06;;;5.15;100.00
37860;BME280;23698;52.014;5.190;2023-04-06T01:06:39;101693.88;;;5.30;100.00
37860;BME280;23698;52.014;5.190;2023-04-06T01:09:27;101694.97;;;5.18;100.00
37860;BME280;23698;52.014;5.190;2023-04-06T01:12:13;101690.59;;;5.26;100.00
37860;BME280;23698;52.014;5.190;2023-04-06T01:15:01;101685.97;;;5.38;100.00
37860;BME280;23698;52.014;5.190;2023-04-06T01:17:50;101685.38;;;5.35;100.00
37860;BME280;23698;52.014;5.190;2023-04-06T01:20:37;101681.41;;;5.29;100.00
37860;BME280;23698;52.014;5.190;2023-04-06T01:23:26;101685.81;;;5.30;100.00
37860;BME280;23698;52.014;5.190;2023-04-06T01:26:13;101685.25;;;5.36;100.00
37860;BME280;23698;52.014;5.190;2023-04-06T01:29:00;101679.19;;;5.54;100.00
37860;BME280;23698;52.014;5.190;2023-04-06T01:31:47;101671.56;;;5.49;100.00
37860;BME280;23698;52.014;5.190;2023-04-06T01:34:34;101674.13;;;5.60;100.00
37860;BME280;23698;52.014;5.190;2023-04-06T01:37:22;101669.88;;;5.67;100.00
37860;BME280;23698;52.014;5.190;2023-04-06T01:40:13;101662.97;;;5.84;100.00
37860;BME280;23698;52.014;5.190;2023-04-06T01:43:06;101662.41;;;5.91;100.00
37860;BME280;23698;52.014;5.190;2023-04-06T01:46:03;101655.88;;;5.74;100.00
37860;BME280;23698;52.014;5.190;2023-04-06T01:48:55;101652.91;;;5.86;100.00
37860;BME280;23698;52.014;5.190;2023-04-06T01:51:55;101651.38;;;5.84;100.00
37860;BME280;23698;52.014;5.190;2023-04-06T01:54:42;101651.63;;;5.61;100.00
37860;BME280;23698;52.014;5.190;2023-04-06T01:57:58;101649.66;;;5.63;100.00
37860;BME280;23698;52.014;5.190;2023-04-06T02:00:51;101647.81;;;5.74;100.00
37860;BME280;23698;52.014;5.190;2023-04-06T02:03:38;101638.31;;;5.79;100.00
37860;BME280;23698;52.014;5.190;2023-04-06T02:06:28;101637.22;;;5.82;100.00
37860;BME280;23698;52.014;5.190;2023-04-06T02:09:15;101639.31;;;5.78;100.00
37860;BME280;23698;52.014;5.190;2023-04-06T02:12:02;101635.34;;;5.82;100.00
37860;BME280;23698;52.014;5.190;2023-04-06T02:14:51;101630.38;;;5.78;100.00
37860;BME280;23698;52.014;5.190;2023-04-06T02:17:38;101627.16;;;5.84;100.00
37860;BME280;23698;52.014;5.190;2023-04-06T02:20:24;101624.16;;;5.77;100.00
37860;BME280;23698;52.014;5.190;2023-04-06T02:23:11;101617.38;;;5.83;100.00
37860;BME280;23698;52.014;5.190;2023-04-06T02:25:57;101616.38;;;5.74;100.00
37860;BME280;23698;52.014;5.190;2023-04-06T02:28:44;101606.59;;;5.63;100.00
37860;BME280;23698;52.014;5.190;2023-04-06T02:31:32;101607.56;;;5.62;100.00
37860;BME280;23698;52.014;5.190;2023-04-06T02:34:20;101608.16;;;5.56;100.00
37860;BME280;23698;52.014;5.190;2023-04-06T02:37:09;101608.31;;;5.64;100.00
37860;BME280;23698;52.014;5.190;2023-04-06T02:39:55;101602.63;;;5.87;100.00
37860;BME280;23698;52.014;5.190;2023-04-06T02:42:42;101601.34;;;5.62;100.00
37860;BME280;23698;52.014;5.190;2023-04-06T02:45:29;101599.22;;;5.85;100.00
37860;BME280;23698;52.014;5.190;2023-04-06T02:48:18;101595.41;;;5.78;100.00
37860;BME280;23698;52.014;5.190;2023-04-06T02:51:05;101588.91;;;5.80;100.00
37860;BME280;23698;52.014;5.190;2023-04-06T02:53:52;101592.13;;;5.94;100.00
37860;BME280;23698;52.014;5.190;2023-04-06T02:56:38;101578.28;;;5.69;100.00
37860;BME280;23698;52.014;5.190;2023-04-06T02:59:25;101581.94;;;5.48;100.00
37860;BME280;23698;52.014;5.190;2023-04-06T03:02:23;101576.31;;;5.61;100.00
37860;BME280;23698;52.014;5.190;2023-04-06T03:05:15;101568.38;;;5.60;100.00
37860;BME280;23698;52.014;5.190;2023-04-06T03:08:04;101575.72;;;5.67;100.00
37860;BME280;23698;52.014;5.190;2023-04-06T03:10:58;101565.25;;;5.35;100.00
37860;BME280;23698;52.014;5.190;2023-04-06T03:13:53;101568.66;;;5.37;100.00
37860;BME280;23698;52.014;5.190;2023-04-06T03:16:39;101572.88;;;5.30;100.00
37860;BME280;23698;52.014;5.190;2023-04-06T03:19:26;101559.84;;;5.25;100.00
37860;BME280;23698;52.014;5.190;2023-04-06T03:22:17;101558.44;;;5.21;100.00
37860;BME280;23698;52.014;5.190;2023-04-06T03:25:06;101556.44;;;5.04;100.00
37860;BME280;23698;52.014;5.190;2023-04-06T03:27:52;101556.28;;;5.15;100.00
37860;BME280;23698;52.014;5.190;2023-04-06T03:30:39;101549.06;;;5.06;100.00
37860;BME280;23698;52.014;5.190;2023-04-06T03:33:26;101558.53;;;5.10;100.00
37860;BME280;23698;52.014;5.190;2023-04-06T03:36:13;101555.84;;;5.10;100.00
37860;BME280;23698;52.014;5.190;2023-04-06T03:39:02;101547.66;;;5.11;100.00
37860;BME280;23698;52.014;5.190;2023-04-06T03:41:52;101551.75;;;5.06;100.00
37860;BME280;23698;52.014;5.190;2023-04-06T03:44:52;101551.50;;;5.09;100.00
37860;BME280;23698;52.014;5.190;2023-04-06T03:47:40;101543.88;;;5.14;100.00
37860;BME280;23698;52.014;5.190;2023-04-06T03:50:26;101546.13;;;5.09;100.00
37860;BME280;23698;52.014;5.190;2023-04-06T03:53:13;101542.00;;;5.05;100.00
37860;BME280;23698;52.014;5.190;2023-04-06T03:56:01;101544.41;;;4.98;100.00
37860;BME280;23698;52.014;5.190;2023-04-06T03:58:49;101543.25;;;5.01;100.00
37860;BME280;23698;52.014;5.190;2023-04-06T04:01:38;101543.53;;;4.98;100.00
37860;BME280;23698;52.014;5.190;2023-04-06T04:04:25;101536.03;;;5.01;100.00
37860;BME280;23698;52.014;5.190;2023-04-06T04:07:11;101544.09;;;5.01;100.00
37860;BME280;23698;52.014;5.190;2023-04-06T04:09:58;101538.72;;;4.91;100.00
37860;BME280;23698;52.014;5.190;2023-04-06T04:12:47;101539.72;;;5.00;100.00
37860;BME280;23698;52.014;5.190;2023-04-06T04:15:33;101534.22;;;5.02;100.00
37860;BME280;23698;52.014;5.190;2023-04-06T04:18:20;101534.66;;;5.07;100.00
37860;BME280;23698;52.014;5.190;2023-04-06T04:21:06;101529.41;;;5.05;100.00
37860;BME280;23698;52.014;5.190;2023-04-06T04:23:53;101532.50;;;5.01;100.00
37860;BME280;23698;52.014;5.190;2023-04-06T04:26:40;101536.63;;;5.15;100.00
37860;BME280;23698;52.014;5.190;2023-04-06T04:29:28;101529.72;;;5.32;100.00
37860;BME280;23698;52.014;5.190;2023-04-06T04:32:19;101530.13;;;5.76;100.00
37860;BME280;23698;52.014;5.190;2023-04-06T04:35:08;101528.00;;;6.09;100.00
37860;BME280;23698;52.014;5.190;2023-04-06T04:37:58;101530.44;;;6.39;100.00
37860;BME280;23698;52.014;5.190;2023-04-06T04:40:45;101531.78;;;6.26;100.00
37860;BME280;23698;52.014;5.190;2023-04-06T04:43:32;101526.56;;;5.95;100.00
37860;BME280;23698;52.014;5.190;2023-04-06T04:46:21;101536.81;;;6.38;100.00
37860;BME280;23698;52.014;5.190;2023-04-06T04:49:09;101534.63;;;6.24;100.00
37860;BME280;23698;52.014;5.190;2023-04-06T04:51:58;101526.84;;;6.11;100.00
37860;BME280;23698;52.014;5.190;2023-04-06T04:54:56;101527.13;;;5.89;100.00
37860;BME280;23698;52.014;5.190;2023-04-06T04:57:46;101527.44;;;6.42;100.00
37860;BME280;23698;52.014;5.190;2023-04-06T05:00:33;101529.09;;;7.27;100.00
37860;BME280;23698;52.014;5.190;2023-04-06T05:03:23;101522.66;;;6.92;100.00
37860;BME280;23698;52.014;5.190;2023-04-06T05:06:18;101518.28;;;7.09;100.00
37860;BME280;23698;52.014;5.190;2023-04-06T05:09:06;101525.63;;;7.34;100.00
37860;BME280;23698;52.014;5.190;2023-04-06T05:11:53;101518.47;;;7.43;100.00
37860;BME280;23698;52.014;5.190;2023-04-06T05:14:40;101513.03;;;6.61;100.00
37860;BME280;23698;52.014;5.190;2023-04-06T05:17:31;101510.78;;;6.85;100.00
37860;BME280;23698;52.014;5.190;2023-04-06T05:20:19;101523.47;;;6.47;100.00
37860;BME280;23698;52.014;5.190;2023-04-06T05:23:08;101519.75;;;6.85;100.00
37860;BME280;23698;52.014;5.190;2023-04-06T05:25:55;101516.63;;;6.52;100.00
37860;BME280;23698;52.014;5.190;2023-04-06T05:28:42;101513.16;;;6.32;100.00
37860;BME280;23698;52.014;5.190;2023-04-06T05:31:29;101515.78;;;6.14;100.00
37860;BME280;23698;52.014;5.190;2023-04-06T05:34:16;101515.00;;;6.41;100.00
37860;BME280;23698;52.014;5.190;2023-04-06T05:37:05;101511.03;;;6.64;100.00
37860;BME280;23698;52.014;5.190;2023-04-06T05:39:51;101508.41;;;6.54;100.00
37860;BME280;23698;52.014;5.190;2023-04-06T05:42:39;101513.19;;;6.60;100.00
37860;BME280;23698;52.014;5.190;2023-04-06T05:45:30;101508.75;;;6.69;100.00
37860;BME280;23698;52.014;5.190;2023-04-06T05:48:23;101515.56;;;6.35;100.00
37860;BME280;23698;52.014;5.190;2023-04-06T05:51:11;101511.47;;;6.31;100.00
37860;BME280;23698;52.014;5.190;2023-04-06T05:54:04;101515.69;;;6.43;100.00
37860;BME280;23698;52.014;5.190;2023-04-06T05:56:51;101508.09;;;6.57;100.00
37860;BME280;23698;52.014;5.190;2023-04-06T05:59:38;101510.72;;;6.94;100.00
37860;BME280;23698;52.014;5.190;2023-04-06T06:02:25;101513.97;;;6.42;100.00
37860;BME280;23698;52.014;5.190;2023-04-06T06:05:16;101503.91;;;6.72;100.00
37860;BME280;23698;52.014;5.190;2023-04-06T06:08:07;101510.03;;;6.92;100.00
37860;BME280;23698;52.014;5.190;2023-04-06T06:10:55;101519.66;;;6.95;100.00
37860;BME280;23698;52.014;5.190;2023-04-06T06:13:42;101513.84;;;7.17;100.00
37860;BME280;23698;52.014;5.190;2023-04-06T06:16:30;101511.63;;;7.31;100.00
37860;BME280;23698;52.014;5.190;2023-04-06T06:19:17;101515.84;;;6.97;100.00
37860;BME280;23698;52.014;5.190;2023-04-06T06:22:05;101523.94;;;7.15;100.00
37860;BME280;23698;52.014;5.190;2023-04-06T06:24:58;101513.75;;;7.45;100.00
37860;BME280;23698;52.014;5.190;2023-04-06T06:27:46;101514.81;;;7.70;100.00
37860;BME280;23698;52.014;5.190;2023-04-06T06:30:38;101521.97;;;7.80;100.00
37860;BME280;23698;52.014;5.190;2023-04-06T06:33:25;101522.53;;;7.65;100.00
37860;BME280;23698;52.014;5.190;2023-04-06T06:36:14;101520.38;;;7.69;100.00
37860;BME280;23698;52.014;5.190;2023-04-06T06:39:01;101522.81;;;7.80;100.00
37860;BME280;23698;52.014;5.190;2023-04-06T06:41:49;101520.06;;;7.54;100.00
37860;BME280;23698;52.014;5.190;2023-04-06T06:44:45;101521.31;;;7.24;100.00
37860;BME280;23698;52.014;5.190;2023-04-06T06:47:31;101517.13;;;7.65;100.00
37860;BME280;23698;52.014;5.190;2023-04-06T06:50:18;101507.56;;;7.53;100.00
37860;BME280;23698;52.014;5.190;2023-04-06T06:53:06;101505.91;;;7.52;100.00
37860;BME280;23698;52.014;5.190;2023-04-06T06:55:53;101499.63;;;7.69;100.00
37860;BME280;23698;52.014;5.190;2023-04-06T06:58:40;101506.00;;;7.86;100.00
37860;BME280;23698;52.014;5.190;2023-04-06T07:01:32;101499.22;;;7.82;100.00
37860;BME280;23698;52.014;5.190;2023-04-06T07:04:19;101498.91;;;8.11;100.00
37860;BME280;23698;52.014;5.190;2023-04-06T07:07:06;101494.00;;;7.63;100.00
37860;BME280;23698;52.014;5.190;2023-04-06T07:09:53;101495.25;;;7.94;100.00
37860;BME280;23698;52.014;5.190;2023-04-06T07:12:40;101489.44;;;8.42;100.00
37860;BME280;23698;52.014;5.190;2023-04-06T07:15:27;101488.06;;;8.38;100.00
37860;BME280;23698;52.014;5.190;2023-04-06T07:18:17;101486.94;;;8.14;100.00
37860;BME280;23698;52.014;5.190;2023-04-06T07:21:05;101488.00;;;8.21;100.00
37860;BME280;23698;52.014;5.190;2023-04-06T07:23:51;101486.13;;;8.48;100.00
37860;BME280;23698;52.014;5.190;2023-04-06T07:26:39;101492.91;;;8.26;100.00
37860;BME280;23698;52.014;5.190;2023-04-06T07:29:26;101485.22;;;8.39;100.00
37860;BME280;23698;52.014;5.190;2023-04-06T07:32:13;101491.41;;;8.31;100.00
37860;BME280;23698;52.014;5.190;2023-04-06T07:35:02;101485.00;;;8.59;100.00
37860;BME280;23698;52.014;5.190;2023-04-06T07:37:48;101481.78;;;8.55;100.00
37860;BME280;23698;52.014;5.190;2023-04-06T07:41:05;101490.41;;;8.32;100.00
37860;BME280;23698;52.014;5.190;2023-04-06T07:43:52;101489.19;;;9.04;100.00
37860;BME280;23698;52.014;5.190;2023-04-06T07:46:39;101495.84;;;8.75;100.00
37860;BME280;23698;52.014;5.190;2023-04-06T07:49:26;101494.75;;;9.02;100.00
37860;BME280;23698;52.014;5.190;2023-04-06T07:52:15;101491.72;;;9.14;100.00
37860;BME280;23698;52.014;5.190;2023-04-06T07:55:02;101486.47;;;9.04;100.00
37860;BME280;23698;52.014;5.190;2023-04-06T07:57:49;101488.88;;;9.73;100.00
37860;BME280;23698;52.014;5.190;2023-04-06T08:00:36;101481.78;;;9.63;100.00
37860;BME280;23698;52.014;5.190;2023-04-06T08:03:51;101481.19;;;10.09;100.00
37860;BME280;23698;52.014;5.190;2023-04-06T08:06:40;101490.75;;;9.48;100.00
37860;BME280;23698;52.014;5.190;2023-04-06T08:09:28;101490.75;;;9.72;100.00
37860;BME280;23698;52.014;5.190;2023-04-06T08:12:15;101484.13;;;9.99;100.00
37860;BME280;23698;52.014;5.190;2023-04-06T08:15:02;101486.00;;;9.82;100.00
37860;BME280;23698;52.014;5.190;2023-04-06T08:17:48;101480.25;;;9.86;100.00
37860;BME280;23698;52.014;5.190;2023-04-06T08:20:35;101492.03;;;10.01;100.00
37860;BME280;23698;52.014;5.190;2023-04-06T08:23:22;101505.22;;;10.20;100.00
37860;BME280;23698;52.014;5.190;2023-04-06T08:26:10;101488.94;;;10.29;100.00
37860;BME280;23698;52.014;5.190;2023-04-06T08:28:56;101489.00;;;10.04;100.00
37860;BME280;23698;52.014;5.190;2023-04-06T08:31:43;101497.34;;;9.86;100.00
37860;BME280;23698;52.014;5.190;2023-04-06T08:34:31;101492.38;;;10.06;100.00
37860;BME280;23698;52.014;5.190;2023-04-06T08:37:18;101496.16;;;9.80;100.00
37860;BME280;23698;52.014;5.190;2023-04-06T08:40:05;101493.59;;;9.87;100.00
37860;BME280;23698;52.014;5.190;2023-04-06T08:42:54;101494.56;;;10.19;100.00
37860;BME280;23698;52.014;5.190;2023-04-06T08:45:42;101497.16;;;9.79;100.00
37860;BME280;23698;52.014;5.190;2023-04-06T08:48:29;101500.13;;;10.34;100.00
37860;BME280;23698;52.014;5.190;2023-04-06T08:51:16;101490.66;;;10.38;100.00
37860;BME280;23698;52.014;5.190;2023-04-06T08:54:04;101492.31;;;10.47;100.00
37860;BME280;23698;52.014;5.190;2023-04-06T08:56:52;101497.88;;;9.73;100.00
37860;BME280;23698;52.014;5.190;2023-04-06T08:59:43;101496.16;;;9.80;100.00
37860;BME280;23698;52.014;5.190;2023-04-06T09:02:31;101499.91;;;9.63;100.00
37860;BME280;23698;52.014;5.190;2023-04-06T09:05:18;101496.66;;;9.51;100.00
37860;BME280;23698;52.014;5.190;2023-04-06T09:08:05;101497.84;;;9.49;100.00
37860;BME280;23698;52.014;5.190;2023-04-06T09:10:52;101503.91;;;9.83;100.00
37860;BME280;23698;52.014;5.190;2023-04-06T09:13:46;101504.78;;;9.76;100.00
37860;BME280;23698;52.014;5.190;2023-04-06T09:16:40;101506.59;;;10.16;100.00
37860;BME280;23698;52.014;5.190;2023-04-06T09:19:27;101502.56;;;9.71;100.00
37860;BME280;23698;52.014;5.190;2023-04-06T09:22:13;101501.53;;;9.97;100.00
37860;BME280;23698;52.014;5.190;2023-04-06T09:25:00;101507.13;;;9.95;100.00
37860;BME280;23698;52.014;5.190;2023-04-06T09:27:46;101500.56;;;9.65;100.00
37860;BME280;23698;52.014;5.190;2023-04-06T09:30:34;101500.41;;;9.42;100.00
37860;BME280;23698;52.014;5.190;2023-04-06T09:36:58;101498.66;;;9.98;100.00
37860;BME280;23698;52.014;5.190;2023-04-06T09:39:45;101488.03;;;10.92;100.00
37860;BME280;23698;52.014;5.190;2023-04-06T09:42:32;101500.50;;;11.02;100.00
37860;BME280;23698;52.014;5.190;2023-04-06T09:46:17;101496.16;;;10.92;100.00
37860;BME280;23698;52.014;5.190;2023-04-06T09:49:04;101485.50;;;10.91;100.00
37860;BME280;23698;52.014;5.190;2023-04-06T09:52:19;101493.78;;;11.21;100.00
37860;BME280;23698;52.014;5.190;2023-04-06T09:56:12;101481.84;;;10.75;100.00
37860;BME280;23698;52.014;5.190;2023-04-06T09:59:08;101485.56;;;10.27;100.00
37860;BME280;23698;52.014;5.190;2023-04-06T10:01:58;101488.94;;;10.29;100.00
37860;BME280;23698;52.014;5.190;2023-04-06T10:04:52;101482.41;;;9.98;100.00
37860;BME280;23698;52.014;5.190;2023-04-06T10:07:41;101477.38;;;9.79;100.00
37860;BME280;23698;52.014;5.190;2023-04-06T10:10:46;101473.63;;;9.88;100.00
37860;BME280;23698;52.014;5.190;2023-04-06T10:13:33;101481.88;;;10.11;100.00
37860;BME280;23698;52.014;5.190;2023-04-06T10:16:20;101484.16;;;9.67;100.00
37860;BME280;23698;52.014;5.190;2023-04-06T10:19:13;101476.88;;;9.67;100.00
37860;BME280;23698;52.014;5.190;2023-04-06T10:22:03;101486.53;;;9.61;100.00
37860;BME280;23698;52.014;5.190;2023-04-06T10:24:52;101477.56;;;9.44;100.00
37860;BME280;23698;52.014;5.190;2023-04-06T10:27:40;101469.78;;;9.33;100.00
37860;BME280;23698;52.014;5.190;2023-04-06T10:30:28;101460.47;;;9.19;100.00
37860;BME280;23698;52.014;5.190;2023-04-06T10:33:15;101457.06;;;9.09;100.00
37860;BME280;23698;52.014;5.190;2023-04-06T10:36:10;101461.75;;;8.91;100.00
37860;BME280;23698;52.014;5.190;2023-04-06T10:38:58;101451.13;;;9.14;100.00
37860;BME280;23698;52.014;5.190;2023-04-06T10:41:47;101437.66;;;9.38;100.00
37860;BME280;23698;52.014;5.190;2023-04-06T10:44:42;101441.38;;;9.45;100.00
37860;BME280;23698;52.014;5.190;2023-04-06T10:47:39;101437.13;;;9.35;100.00
37860;BME280;23698;52.014;5.190;2023-04-06T10:50:54;101429.69;;;9.20;100.00
37860;BME280;23698;52.014;5.190;2023-04-06T10:53:41;101422.41;;;9.04;100.00
37860;BME280;23698;52.014;5.190;2023-04-06T10:56:29;101415.81;;;9.64;100.00
37860;BME280;23698;52.014;5.190;2023-04-06T10:59:20;101421.91;;;9.25;100.00
37860;BME280;23698;52.014;5.190;2023-04-06T11:02:08;101412.78;;;9.18;100.00
37860;BME280;23698;52.014;5.190;2023-04-06T11:04:55;101402.88;;;9.91;100.00
37860;BME280;23698;52.014;5.190;2023-04-06T11:07:44;101403.22;;;9.80;100.00
37860;BME280;23698;52.014;5.190;2023-04-06T11:10:30;101405.34;;;9.29;100.00
37860;BME280;23698;52.014;5.190;2023-04-06T11:13:17;101386.78;;;9.98;100.00
37860;BME280;23698;52.014;5.190;2023-04-06T11:16:06;101384.19;;;10.05;100.00
37860;BME280;23698;52.014;5.190;2023-04-06T11:18:53;101381.25;;;10.23;100.00
37860;BME280;23698;52.014;5.190;2023-04-06T11:21:41;101366.59;;;10.09;100.00
37860;BME280;23698;52.014;5.190;2023-04-06T11:24:30;101375.31;;;9.71;100.00
37860;BME280;23698;52.014;5.190;2023-04-06T11:27:17;101367.28;;;9.38;100.00
37860;BME280;23698;52.014;5.190;2023-04-06T11:30:05;101353.00;;;9.77;100.00
37860;BME280;23698;52.014;5.190;2023-04-06T11:33:00;101352.16;;;10.16;100.00
37860;BME280;23698;52.014;5.190;2023-04-06T11:35:48;101353.88;;;9.61;100.00
37860;BME280;23698;52.014;5.190;2023-04-06T11:38:38;101346.28;;;9.57;100.00
37860;BME280;23698;52.014;5.190;2023-04-06T11:41:25;101344.28;;;9.26;100.00
37860;BME280;23698;52.014;5.190;2023-04-06T11:44:28;101333.63;;;9.41;100.00
37860;BME280;23698;52.014;5.190;2023-04-06T11:47:15;101328.97;;;9.74;100.00
37860;BME280;23698;52.014;5.190;2023-04-06T11:50:10;101326.97;;;10.08;100.00
37860;BME280;23698;52.014;5.190;2023-04-06T11:52:58;101321.72;;;9.67;100.00
37860;BME280;23698;52.014;5.190;2023-04-06T11:55:47;101315.78;;;10.11;100.00
37860;BME280;23698;52.014;5.190;2023-04-06T11:58:35;101313.34;;;9.85;100.00
37860;BME280;23698;52.014;5.190;2023-04-06T12:01:24;101315.56;;;9.89;100.00
37860;BME280;23698;52.014;5.190;2023-04-06T12:04:13;101321.97;;;9.88;100.00
37860;BME280;23698;52.014;5.190;2023-04-06T12:07:02;101319.25;;;9.96;100.00
37860;BME280;23698;52.014;5.190;2023-04-06T12:09:48;101311.78;;;10.30;100.00
37860;BME280;23698;52.014;5.190;2023-04-06T12:12:35;101308.97;;;10.15;100.00
37860;BME280;23698;52.014;5.190;2023-04-06T12:15:21;101316.44;;;10.13;100.00
37860;BME280;23698;52.014;5.190;2023-04-06T12:18:07;101312.97;;;10.35;100.00
37860;BME280;23698;52.014;5.190;2023-04-06T12:20:54;101316.16;;;10.39;100.00
37860;BME280;23698;52.014;5.190;2023-04-06T12:23:43;101308.59;;;10.26;100.00
37860;BME280;23698;52.014;5.190;2023-04-06T12:26:31;101307.69;;;10.02;100.00
37860;BME280;23698;52.014;5.190;2023-04-06T12:29:18;101306.44;;;9.82;100.00
37860;BME280;23698;52.014;5.190;2023-04-06T12:32:04;101302.22;;;9.71;100.00
37860;BME280;23698;52.014;5.190;2023-04-06T12:34:52;101311.13;;;9.40;100.00
37860;BME280;23698;52.014;5.190;2023-04-06T12:37:38;101301.13;;;9.97;100.00
37860;BME280;23698;52.014;5.190;2023-04-06T12:40:26;101301.47;;;9.54;100.00
37860;BME280;23698;52.014;5.190;2023-04-06T12:43:13;101289.78;;;9.54;100.00
37860;BME280;23698;52.014;5.190;2023-04-06T12:46:00;101290.56;;;9.71;100.00
37860;BME280;23698;52.014;5.190;2023-04-06T12:48:46;101282.03;;;9.42;100.00
37860;BME280;23698;52.014;5.190;2023-04-06T12:51:33;101282.50;;;9.54;100.00
37860;BME280;23698;52.014;5.190;2023-04-06T12:54:20;101267.34;;;9.29;100.00
37860;BME280;23698;52.014;5.190;2023-04-06T12:57:08;101268.50;;;9.42;100.00
37860;BME280;23698;52.014;5.190;2023-04-06T12:59:54;101260.41;;;9.34;100.00
37860;BME280;23698;52.014;5.190;2023-04-06T13:02:41;101264.28;;;9.40;100.00
37860;BME280;23698;52.014;5.190;2023-04-06T13:05:31;101255.53;;;9.30;100.00
37860;BME280;23698;52.014;5.190;2023-04-06T13:08:19;101259.75;;;9.24;100.00
37860;BME280;23698;52.014;5.190;2023-04-06T13:11:07;101256.44;;;8.97;100.00
37860;BME280;23698;52.014;5.190;2023-04-06T13:13:57;101247.28;;;9.15;100.00
37860;BME280;23698;52.014;5.190;2023-04-06T13:16:43;101245.41;;;9.15;100.00
37860;BME280;23698;52.014;5.190;2023-04-06T13:19:30;101245.94;;;8.94;100.00
37860;BME280;23698;52.014;5.190;2023-04-06T13:22:17;101239.88;;;8.84;100.00
37860;BME280;23698;52.014;5.190;2023-04-06T13:25:05;101236.78;;;9.12;100.00
37860;BME280;23698;52.014;5.190;2023-04-06T13:27:52;101237.13;;;9.08;100.00
37860;BME280;23698;52.014;5.190;2023-04-06T13:30:41;101233.41;;;9.10;100.00
37860;BME280;23698;52.014;5.190;2023-04-06T13:33:28;101233.13;;;8.88;100.00
37860;BME280;23698;52.014;5.190;2023-04-06T13:36:15;101227.59;;;9.37;100.00
37860;BME280;23698;52.014;5.190;2023-04-06T13:39:03;101225.22;;;9.34;100.00
37860;BME280;23698;52.014;5.190;2023-04-06T13:41:55;101225.97;;;9.20;100.00
37860;BME280;23698;52.014;5.190;2023-04-06T13:44:42;101221.38;;;9.29;100.00
37860;BME280;23698;52.014;5.190;2023-04-06T13:47:30;101226.22;;;9.41;100.00
37860;BME280;23698;52.014;5.190;2023-04-06T13:50:18;101220.22;;;9.23;100.00
37860;BME280;23698;52.014;5.190;2023-04-06T13:53:05;101215.72;;;9.47;100.00
37860;BME280;23698;52.014;5.190;2023-04-06T13:55:53;101209.59;;;9.05;100.00
37860;BME280;23698;52.014;5.190;2023-04-06T13:58:39;101206.94;;;9.44;100.00
37860;BME280;23698;52.014;5.190;2023-04-06T14:01:27;101215.25;;;9.35;100.00
37860;BME280;23698;52.014;5.190;2023-04-06T14:04:15;101202.78;;;9.17;100.00
37860;BME280;23698;52.014;5.190;2023-04-06T14:07:05;101209.41;;;9.06;100.00
37860;BME280;23698;52.014;5.190;2023-04-06T14:09:53;101217.91;;;9.03;100.00
37860;BME280;23698;52.014;5.190;2023-04-06T14:12:44;101211.13;;;8.91;100.00
37860;BME280;23698;52.014;5.190;2023-04-06T14:15:34;101206.94;;;8.88;100.00
37860;BME280;23698;52.014;5.190;2023-04-06T14:18:20;101209.63;;;8.97;100.00
37860;BME280;23698;52.014;5.190;2023-04-06T14:21:09;101208.97;;;8.95;100.00
37860;BME280;23698;52.014;5.190;2023-04-06T14:23:55;101212.81;;;9.00;100.00
37860;BME280;23698;52.014;5.190;2023-04-06T14:26:44;101203.34;;;9.04;100.00
37860;BME280;23698;52.014;5.190;2023-04-06T14:29:31;101194.31;;;9.29;100.00
37860;BME280;23698;52.014;5.190;2023-04-06T14:32:19;101207.91;;;9.12;100.00
37860;BME280;23698;52.014;5.190;2023-04-06T14:35:08;101205.16;;;9.20;100.00
37860;BME280;23698;52.014;5.190;2023-04-06T14:38:01;101204.16;;;9.13;100.00
37860;BME280;23698;52.014;5.190;2023-04-06T14:40:48;101203.44;;;9.27;100.00
37860;BME280;23698;52.014;5.190;2023-04-06T14:43:37;101204.38;;;9.51;100.00
37860;BME280;23698;52.014;5.190;2023-04-06T14:46:24;101194.50;;;9.19;100.00